Time;durP1;ratioP1;P1;durP2;ratioP2;P2;SDS_P1;SDS_P2;PMS_P1;PMS_P2;Temp;Humidity;BMP_temperature;BMP_pressure;BME280_temperature;BME280_humidity;BME280_pressure;Samples;Min_cycle;Max_cycle;Signal;HPM_P1;HPM_P2
2022/05/13 00:01:09;;;;;;;7.88;5.68;;;9.50;99.90;;;;;;4951818;28;20043;-62
2022/05/13 00:03:36;;;;;;;8.07;5.30;;;9.50;99.90;;;;;;4960317;28;20043;-62
2022/05/13 00:06:02;;;;;;;9.27;5.18;;;9.30;99.90;;;;;;4940914;28;20039;-62
2022/05/13 00:08:28;;;;;;;7.13;5.13;;;9.20;99.90;;;;;;4941981;29;20050;-62
2022/05/13 00:10:55;;;;;;;8.77;5.38;;;9.10;99.90;;;;;;4953330;28;20039;-62
2022/05/13 00:13:21;;;;;;;8.85;5.15;;;9.00;99.90;;;;;;4949896;28;20039;-62
2022/05/13 00:15:47;;;;;;;8.30;5.20;;;9.00;99.90;;;;;;4939832;28;20406;-62
2022/05/13 00:18:13;;;;;;;8.05;5.07;;;9.10;99.90;;;;;;4953464;28;20051;-61
2022/05/13 00:20:39;;;;;;;8.55;4.95;;;9.30;99.90;;;;;;4953508;28;20163;-62
2022/05/13 00:23:04;;;;;;;12.82;5.45;;;9.40;99.90;;;;;;4938865;28;20043;-62
2022/05/13 00:25:34;;;;;;;6.82;5.10;;;9.30;99.90;;;;;;4951572;28;20050;-62
2022/05/13 00:28:01;;;;;;;9.38;4.80;;;9.40;99.90;;;;;;4951917;28;20047;-62
2022/05/13 00:30:29;;;;;;;9.05;4.55;;;9.40;99.90;;;;;;4940709;28;20473;-62
2022/05/13 00:32:55;;;;;;;11.20;4.85;;;9.60;99.90;;;;;;4946448;28;20074;-62
2022/05/13 00:35:21;;;;;;;7.45;4.55;;;9.70;99.90;;;;;;4958534;28;20382;-62
2022/05/13 00:37:47;;;;;;;7.78;4.90;;;9.70;99.90;;;;;;4943922;28;20118;-62
2022/05/13 00:40:16;;;;;;;7.82;4.47;;;9.80;99.90;;;;;;4940761;28;20178;-62
2022/05/13 00:42:42;;;;;;;8.90;4.40;;;9.90;99.90;;;;;;4950198;29;20050;-62
2022/05/13 00:45:08;;;;;;;8.55;4.45;;;9.90;99.90;;;;;;4955909;28;20046;-62
2022/05/13 00:47:34;;;;;;;8.30;4.28;;;10.00;99.90;;;;;;4946988;28;20051;-62
2022/05/13 00:50:02;;;;;;;8.88;4.15;;;10.10;99.90;;;;;;4949059;29;20043;-62
2022/05/13 00:52:28;;;;;;;10.02;4.25;;;10.10;99.90;;;;;;4958506;28;20061;-62
2022/05/13 00:54:55;;;;;;;9.70;4.65;;;10.20;99.90;;;;;;4952737;28;20039;-61
2022/05/13 00:57:21;;;;;;;8.20;4.57;;;10.20;99.90;;;;;;4934827;28;20122;-62
2022/05/13 00:59:50;;;;;;;7.25;4.70;;;10.20;99.90;;;;;;4948991;28;20105;-61
2022/05/13 01:02:16;;;;;;;10.00;4.60;;;10.20;99.90;;;;;;4961074;28;20039;-61
2022/05/13 01:04:42;;;;;;;8.93;4.60;;;10.20;99.90;;;;;;4941173;28;20043;-62
2022/05/13 01:07:19;;;;;;;11.48;4.95;;;10.30;99.90;;;;;;4946070;28;20042;-62
2022/05/13 01:09:49;;;;;;;10.27;4.70;;;10.30;99.90;;;;;;4952630;28;20040;-62
2022/05/13 01:12:20;;;;;;;8.33;4.70;;;10.40;99.90;;;;;;4949118;28;20055;-62
2022/05/13 01:14:52;;;;;;;9.35;4.32;;;10.40;99.90;;;;;;4951397;28;20317;-62
2022/05/13 01:20:17;;;;;;;9.15;4.85;;;10.40;99.90;;;;;;4959060;28;20122;-62
2022/05/13 01:22:56;;;;;;;9.40;4.75;;;10.40;99.90;;;;;;4951111;29;20063;-62
2022/05/13 01:25:27;;;;;;;10.35;4.70;;;10.40;99.90;;;;;;4956582;28;20126;-62
2022/05/13 01:27:54;;;;;;;9.45;4.90;;;10.40;99.90;;;;;;4950227;28;20102;-62
2022/05/13 01:30:28;;;;;;;10.60;5.07;;;10.40;99.90;;;;;;4942547;28;20425;-61
2022/05/13 01:32:54;;;;;;;8.52;4.93;;;10.40;99.90;;;;;;4954821;28;20082;-62
2022/05/13 01:35:21;;;;;;;11.00;4.68;;;10.40;99.90;;;;;;4955339;28;20071;-61
2022/05/13 01:37:47;;;;;;;12.48;4.80;;;10.40;99.90;;;;;;4950480;28;20089;-62
2022/05/13 01:40:13;;;;;;;9.95;5.10;;;10.40;99.90;;;;;;4953806;28;20039;-62
2022/05/13 01:42:39;;;;;;;8.48;4.82;;;10.40;99.90;;;;;;4956088;28;20043;-62
2022/05/13 01:45:07;;;;;;;10.40;4.93;;;10.50;99.90;;;;;;4943790;28;20094;-61
2022/05/13 01:47:33;;;;;;;8.80;5.53;;;10.50;99.90;;;;;;4940940;28;20074;-62
2022/05/13 01:49:59;;;;;;;11.73;5.13;;;10.40;99.90;;;;;;4955522;28;20047;-62
2022/05/13 01:52:24;;;;;;;9.80;4.70;;;10.50;99.90;;;;;;4955912;28;20051;-62
2022/05/13 01:54:50;;;;;;;9.93;5.10;;;10.50;99.90;;;;;;4950285;28;20042;-62
2022/05/13 01:57:16;;;;;;;9.07;4.57;;;10.50;99.90;;;;;;4946745;28;20054;-62
2022/05/13 01:59:41;;;;;;;12.82;5.05;;;10.50;99.90;;;;;;4954476;28;20047;-62
2022/05/13 02:02:07;;;;;;;8.40;4.53;;;10.50;99.90;;;;;;4955731;28;20058;-62
2022/05/13 02:04:32;;;;;;;9.63;4.80;;;10.50;99.90;;;;;;4951142;28;20043;-62
2022/05/13 02:06:58;;;;;;;12.52;4.80;;;10.60;99.90;;;;;;4955612;28;20645;-62
2022/05/13 02:09:24;;;;;;;8.07;4.32;;;10.60;99.90;;;;;;4961259;28;20035;-62
2022/05/13 02:11:50;;;;;;;12.60;4.63;;;10.60;99.90;;;;;;4947877;28;20055;-61
2022/05/13 02:14:17;;;;;;;10.20;4.50;;;10.60;99.90;;;;;;4954368;28;20043;-62
2022/05/13 02:16:43;;;;;;;8.75;4.60;;;10.60;99.90;;;;;;4961760;28;20061;-61
2022/05/13 02:19:09;;;;;;;9.25;4.47;;;10.60;99.90;;;;;;4951179;28;20061;-61
2022/05/13 02:21:36;;;;;;;10.32;4.40;;;10.60;99.90;;;;;;4948870;28;20498;-62
2022/05/13 02:24:02;;;;;;;9.88;4.60;;;10.50;99.90;;;;;;4947014;29;20047;-61
2022/05/13 02:26:27;;;;;;;9.25;4.60;;;10.50;99.90;;;;;;4950355;28;20035;-62
2022/05/13 02:28:53;;;;;;;12.23;4.88;;;10.50;99.90;;;;;;4942345;29;20090;-62
2022/05/13 02:31:19;;;;;;;6.60;4.15;;;10.50;99.90;;;;;;4954628;28;20043;-62
2022/05/13 02:33:44;;;;;;;15.57;4.47;;;10.60;99.90;;;;;;4964011;28;20035;-62
2022/05/13 02:36:11;;;;;;;9.23;4.45;;;10.60;99.90;;;;;;4949168;28;20040;-63
2022/05/13 02:38:37;;;;;;;9.13;4.45;;;10.60;99.90;;;;;;4944724;29;20082;-63
2022/05/13 02:41:13;;;;;;;11.00;4.80;;;10.50;99.90;;;;;;4957768;28;20046;-63
2022/05/13 02:43:43;;;;;;;9.57;4.68;;;10.50;99.90;;;;;;4956786;28;20098;-64
2022/05/13 02:46:08;;;;;;;9.93;4.40;;;10.50;99.90;;;;;;4942145;29;20043;-63
2022/05/13 02:48:35;;;;;;;10.55;5.00;;;10.50;99.90;;;;;;4952167;28;20402;-63
2022/05/13 02:51:00;;;;;;;9.65;4.60;;;10.50;99.90;;;;;;4965695;28;20524;-63
2022/05/13 02:53:26;;;;;;;12.50;4.82;;;10.50;99.90;;;;;;4943646;28;20039;-64
2022/05/13 02:55:52;;;;;;;9.73;4.45;;;10.40;99.90;;;;;;4952691;29;20047;-64
2022/05/13 02:58:18;;;;;;;10.75;4.45;;;10.40;99.90;;;;;;4953103;28;20047;-64
2022/05/13 03:00:44;;;;;;;10.38;4.75;;;10.30;99.90;;;;;;4943852;28;20106;-64
2022/05/13 03:03:11;;;;;;;9.07;4.05;;;10.30;99.90;;;;;;4948538;28;20047;-63
2022/05/13 03:05:38;;;;;;;11.40;4.28;;;10.20;99.90;;;;;;4962453;28;20046;-63
2022/05/13 03:08:07;;;;;;;5.88;3.75;;;10.20;99.90;;;;;;4971163;28;20042;-63
2022/05/13 03:10:35;;;;;;;9.40;4.20;;;10.10;99.90;;;;;;4946593;28;20043;-63
2022/05/13 03:13:01;;;;;;;6.40;3.85;;;10.10;99.90;;;;;;4945851;29;20560;-62
2022/05/13 03:15:27;;;;;;;8.15;4.05;;;10.10;99.90;;;;;;4953746;28;20039;-64
2022/05/13 03:17:53;;;;;;;10.50;4.22;;;10.00;99.90;;;;;;4955488;28;20046;-64
2022/05/13 03:20:20;;;;;;;9.23;3.80;;;10.00;99.90;;;;;;4944951;29;20433;-64
2022/05/13 03:22:47;;;;;;;9.52;4.40;;;10.00;99.90;;;;;;4953936;28;20039;-63
2022/05/13 03:25:13;;;;;;;8.48;3.95;;;10.00;99.90;;;;;;4948023;28;20091;-62
2022/05/13 03:27:40;;;;;;;10.82;3.83;;;10.00;99.90;;;;;;4936864;29;20490;-62
2022/05/13 03:30:07;;;;;;;8.65;3.67;;;10.10;99.90;;;;;;4951460;29;20046;-63
2022/05/13 03:32:33;;;;;;;8.70;3.83;;;10.20;99.90;;;;;;4961461;28;20050;-63
2022/05/13 03:34:59;;;;;;;10.15;3.53;;;10.20;99.90;;;;;;4943932;28;20031;-63
2022/05/13 03:37:24;;;;;;;7.18;3.58;;;10.20;99.90;;;;;;4985586;23;20074;-63
2022/05/13 03:39:50;;;;;;;9.27;3.60;;;10.30;99.90;;;;;;4963990;28;20121;-62
2022/05/13 03:42:15;;;;;;;7.35;3.80;;;10.30;99.90;;;;;;4964187;28;20047;-63
2022/05/13 03:44:42;;;;;;;10.10;3.80;;;10.30;99.90;;;;;;4958112;28;20078;-63
2022/05/13 03:47:07;;;;;;;11.32;4.20;;;10.40;99.90;;;;;;4967517;28;20552;-63
2022/05/13 03:49:33;;;;;;;8.48;3.40;;;10.40;99.90;;;;;;4953681;28;20135;-63
2022/05/13 03:51:59;;;;;;;10.02;3.70;;;10.40;99.90;;;;;;4954010;28;20114;-63
2022/05/13 03:54:24;;;;;;;13.40;3.70;;;10.50;99.90;;;;;;4942515;28;20453;-63
2022/05/13 03:56:50;;;;;;;8.40;3.75;;;10.50;99.90;;;;;;4952763;28;20073;-63
2022/05/13 03:59:15;;;;;;;12.95;4.10;;;10.50;99.90;;;;;;4946212;28;20043;-63
2022/05/13 04:01:41;;;;;;;10.18;3.65;;;10.50;99.90;;;;;;4946774;28;20090;-63
2022/05/13 04:04:07;;;;;;;11.05;3.80;;;10.50;99.90;;;;;;4953382;28;20035;-63
2022/05/13 04:09:16;;;;;;;8.40;3.60;;;10.60;99.90;;;;;;4940928;29;20534;-63
2022/05/13 04:16:04;;;;;;;14.65;4.22;;;10.60;99.90;;;;;;4950953;28;20110;-63
2022/05/13 04:17:12;;;;;;;8.90;4.10;;;10.60;99.90;;;;;;4936945;28;20123;-63
2022/05/13 04:19:38;;;;;;;8.63;4.28;;;10.70;99.90;;;;;;4949853;28;20126;-63
2022/05/13 04:22:04;;;;;;;16.63;5.25;;;10.70;99.90;;;;;;4952643;29;20059;-63
2022/05/13 04:24:29;;;;;;;13.73;4.22;;;10.70;99.90;;;;;;4949144;28;20047;-63
2022/05/13 04:26:55;;;;;;;15.48;4.38;;;10.80;99.90;;;;;;4937444;28;20081;-63
2022/05/13 04:29:21;;;;;;;13.63;4.38;;;10.80;99.90;;;;;;4951034;28;20047;-63
2022/05/13 04:31:46;;;;;;;11.75;4.25;;;10.80;99.90;;;;;;4947553;28;20062;-63
2022/05/13 04:34:12;;;;;;;12.20;4.15;;;10.80;99.90;;;;;;4941270;29;20066;-63
2022/05/13 04:36:38;;;;;;;11.50;4.40;;;10.80;99.90;;;;;;4945678;29;20034;-63
2022/05/13 04:39:04;;;;;;;16.50;4.95;;;10.90;99.90;;;;;;4952479;28;20506;-63
2022/05/13 04:44:15;;;;;;;14.38;4.63;;;10.90;99.90;;;;;;4938210;28;20043;-63
2022/05/13 04:46:41;;;;;;;14.85;5.10;;;11.00;99.90;;;;;;4955872;28;20493;-63
2022/05/13 04:49:07;;;;;;;17.90;5.88;;;11.00;99.90;;;;;;4949567;28;20046;-63
2022/05/13 04:51:34;;;;;;;15.52;4.72;;;11.00;99.90;;;;;;4949029;29;20497;-63
2022/05/13 04:53:59;;;;;;;11.00;4.60;;;11.10;99.90;;;;;;4939326;28;20046;-63
2022/05/13 04:56:27;;;;;;;15.75;5.28;;;11.10;99.90;;;;;;4949060;29;20437;-63
2022/05/13 04:58:53;;;;;;;13.60;5.15;;;11.10;99.90;;;;;;4958646;28;20046;-63
2022/05/13 05:01:20;;;;;;;19.10;5.53;;;11.10;99.90;;;;;;4972587;28;20038;-63
2022/05/13 05:03:46;;;;;;;13.25;4.97;;;11.10;99.90;;;;;;4944669;29;20048;-63
2022/05/13 05:06:13;;;;;;;17.20;5.97;;;11.20;99.90;;;;;;4951980;29;20061;-63
2022/05/13 05:08:40;;;;;;;15.73;5.18;;;11.20;99.90;;;;;;4955858;28;20039;-63
2022/05/13 05:11:07;;;;;;;13.48;5.40;;;11.20;99.90;;;;;;4955723;28;20127;-63
2022/05/13 05:13:36;;;;;;;12.95;5.50;;;11.30;99.90;;;;;;4964246;28;20039;-63
2022/05/13 05:16:02;;;;;;;15.23;5.10;;;11.30;99.90;;;;;;4938997;29;20062;-63
2022/05/13 05:18:34;;;;;;;16.40;5.82;;;11.40;99.90;;;;;;4949460;28;20113;-63
2022/05/13 05:21:01;;;;;;;15.90;5.40;;;11.40;99.90;;;;;;4953022;28;20110;-65
2022/05/13 05:23:31;;;;;;;13.00;5.43;;;11.40;99.90;;;;;;4943254;28;20126;-63
2022/05/13 05:25:58;;;;;;;16.92;5.80;;;11.40;99.90;;;;;;4949737;28;20043;-63
2022/05/13 05:28:26;;;;;;;15.23;5.63;;;11.50;99.90;;;;;;4967031;28;20070;-63
2022/05/13 05:30:52;;;;;;;18.92;5.53;;;11.60;99.90;;;;;;4948691;28;20112;-63
2022/05/13 05:33:18;;;;;;;16.27;5.90;;;11.60;99.90;;;;;;4950030;28;20035;-63
2022/05/13 05:35:44;;;;;;;18.42;5.68;;;11.70;99.90;;;;;;4953274;28;20405;-63
2022/05/13 05:38:09;;;;;;;16.50;5.70;;;11.80;99.90;;;;;;4952486;28;20521;-63
2022/05/13 05:40:36;;;;;;;20.40;6.18;;;11.90;99.90;;;;;;4940599;29;20083;-63
2022/05/13 05:43:04;;;;;;;14.82;5.65;;;12.00;99.90;;;;;;4945003;29;20047;-63
2022/05/13 05:45:30;;;;;;;17.40;6.80;;;12.10;99.90;;;;;;4953153;28;20084;-63
2022/05/13 05:47:56;;;;;;;19.90;6.22;;;12.10;99.90;;;;;;4940765;28;20047;-63
2022/05/13 05:50:21;;;;;;;16.23;6.30;;;12.10;99.90;;;;;;4951171;28;20114;-63
2022/05/13 05:52:47;;;;;;;16.48;6.22;;;12.20;99.90;;;;;;4961328;28;20055;-63
2022/05/13 05:58:02;;;;;;;18.35;6.40;;;12.30;99.90;;;;;;4935360;28;20505;-62
2022/05/13 06:00:29;;;;;;;20.85;6.30;;;12.50;99.90;;;;;;4951338;28;20047;-62
2022/05/13 06:02:55;;;;;;;15.73;6.30;;;12.60;99.90;;;;;;4950882;28;20043;-62
2022/05/13 06:05:23;;;;;;;16.52;5.80;;;12.70;99.90;;;;;;4950801;29;20035;-63
2022/05/13 06:07:50;;;;;;;18.58;6.00;;;12.80;99.90;;;;;;4947600;28;20043;-63
2022/05/13 06:10:17;;;;;;;17.98;5.75;;;13.00;99.90;;;;;;4939965;29;20050;-63
2022/05/13 06:12:43;;;;;;;22.05;6.20;;;13.00;99.90;;;;;;4941900;28;20047;-63
2022/05/13 06:15:10;;;;;;;15.75;5.50;;;13.10;99.90;;;;;;4951007;28;20050;-63
2022/05/13 06:17:41;;;;;;;15.18;5.75;;;13.30;99.90;;;;;;4959067;28;20129;-63
2022/05/13 06:20:07;;;;;;;17.05;5.55;;;13.30;99.90;;;;;;4946362;28;20126;-63
2022/05/13 06:22:33;;;;;;;16.92;5.45;;;13.50;99.90;;;;;;4947329;29;20055;-63
2022/05/13 06:24:58;;;;;;;10.88;4.70;;;13.50;99.90;;;;;;4954292;28;20587;-63
2022/05/13 06:27:24;;;;;;;10.23;4.35;;;13.60;99.90;;;;;;4963251;28;20066;-63
2022/05/13 06:29:51;;;;;;;10.82;5.13;;;13.70;99.90;;;;;;4943527;28;20721;-63
2022/05/13 06:32:17;;;;;;;14.32;4.90;;;13.70;99.90;;;;;;4942040;28;20048;-63
2022/05/13 06:34:43;;;;;;;12.40;4.85;;;13.80;99.90;;;;;;4949624;28;20046;-63
2022/05/13 06:37:08;;;;;;;11.90;4.50;;;13.90;99.90;;;;;;4950567;28;20074;-63
2022/05/13 06:39:34;;;;;;;12.80;4.20;;;14.10;99.90;;;;;;4958613;28;20094;-63
2022/05/13 06:41:59;;;;;;;12.75;4.53;;;14.20;99.90;;;;;;4944498;28;20093;-63
2022/05/13 06:44:25;;;;;;;11.32;4.32;;;14.20;99.90;;;;;;4943637;28;20506;-63
2022/05/13 06:46:50;;;;;;;13.98;4.30;;;14.30;99.90;;;;;;4935496;28;20819;-63
2022/05/13 06:49:16;;;;;;;13.45;4.30;;;14.30;99.90;;;;;;4951056;28;20446;-63
2022/05/13 06:51:42;;;;;;;12.13;4.32;;;14.20;99.90;;;;;;4946857;28;20118;-63
2022/05/13 06:54:11;;;;;;;13.07;4.28;;;14.20;99.90;;;;;;4950024;28;20035;-63
2022/05/13 06:56:40;;;;;;;11.23;3.95;;;14.20;99.90;;;;;;4951629;28;20031;-63
2022/05/13 06:59:06;;;;;;;12.40;4.00;;;14.30;99.90;;;;;;4951228;28;20043;-63
2022/05/13 07:01:32;;;;;;;13.85;4.30;;;14.30;99.90;;;;;;4937020;28;20717;-62
2022/05/13 07:03:57;;;;;;;11.02;3.85;;;14.20;99.90;;;;;;4940859;29;20062;-62
2022/05/13 07:06:23;;;;;;;9.70;4.30;;;14.20;99.90;;;;;;4949094;28;20053;-62
2022/05/13 07:08:50;;;;;;;12.30;4.53;;;14.10;99.90;;;;;;4959821;28;20039;-62
2022/05/13 07:11:20;;;;;;;13.40;4.40;;;14.10;99.90;;;;;;4958660;28;20034;-62
2022/05/13 07:13:46;;;;;;;9.85;4.22;;;14.00;99.90;;;;;;4946137;28;20691;-63
2022/05/13 07:16:12;;;;;;;13.30;4.57;;;13.90;99.90;;;;;;4950462;28;20047;-63
2022/05/13 07:18:39;;;;;;;11.95;4.93;;;13.90;99.90;;;;;;4947262;28;20039;-65
2022/05/13 07:21:05;;;;;;;15.18;4.80;;;13.80;99.90;;;;;;4943111;28;20043;-64
2022/05/13 07:23:31;;;;;;;13.38;4.80;;;13.80;99.90;;;;;;4949193;28;20050;-64
2022/05/13 07:25:57;;;;;;;17.10;4.85;;;14.00;99.90;;;;;;4961394;28;20046;-63
2022/05/13 07:28:23;;;;;;;16.73;4.80;;;14.20;99.90;;;;;;4947632;28;20418;-64
2022/05/13 07:30:49;;;;;;;15.10;4.72;;;14.20;99.90;;;;;;4950341;28;20090;-64
2022/05/13 07:33:15;;;;;;;9.57;4.30;;;14.30;99.90;;;;;;4949458;28;20074;-64
2022/05/13 07:35:40;;;;;;;13.95;4.40;;;14.30;99.90;;;;;;4938022;28;20043;-64
2022/05/13 07:38:07;;;;;;;12.07;4.60;;;14.40;99.90;;;;;;4935647;28;20039;-64
2022/05/13 07:43:17;;;;;;;11.00;4.40;;;14.40;99.90;;;;;;4930886;29;20055;-64
2022/05/13 07:45:43;;;;;;;11.15;3.90;;;14.60;99.90;;;;;;4946938;29;20047;-64
2022/05/13 07:48:09;;;;;;;8.05;3.63;;;14.80;99.90;;;;;;4949885;28;20051;-63
2022/05/13 07:50:35;;;;;;;11.93;3.47;;;15.10;99.90;;;;;;4950567;28;20512;-63
2022/05/13 07:53:01;;;;;;;10.80;3.47;;;15.30;99.90;;;;;;4936390;28;20035;-63
2022/05/13 07:55:27;;;;;;;13.43;3.65;;;15.20;99.90;;;;;;4948695;28;20121;-63
2022/05/13 07:57:53;;;;;;;10.10;3.65;;;15.30;99.90;;;;;;4949779;28;20043;-63
2022/05/13 08:00:27;;;;;;;8.80;3.00;;;15.50;99.90;;;;;;4949734;28;20043;-64
2022/05/13 08:02:56;;;;;;;7.03;2.67;;;15.70;99.90;;;;;;4944105;28;20047;-63
2022/05/13 08:05:22;;;;;;;10.50;3.03;;;15.60;99.90;;;;;;4949393;28;20478;-63
2022/05/13 08:07:48;;;;;;;7.70;2.60;;;15.30;99.90;;;;;;4960488;28;20170;-63
2022/05/13 08:10:14;;;;;;;7.30;2.50;;;15.30;99.90;;;;;;4945130;28;20049;-63
2022/05/13 08:12:42;;;;;;;5.25;2.63;;;15.40;99.90;;;;;;4950133;29;20035;-63
2022/05/13 08:15:08;;;;;;;7.25;2.90;;;15.40;99.90;;;;;;4947667;28;20044;-64
2022/05/13 08:17:34;;;;;;;7.82;2.58;;;15.50;99.90;;;;;;4935692;29;20042;-63
2022/05/13 08:20:00;;;;;;;7.30;2.50;;;15.50;99.90;;;;;;4952388;28;20047;-63
2022/05/13 08:22:25;;;;;;;8.93;2.47;;;15.60;99.90;;;;;;4958504;28;20479;-63
2022/05/13 08:24:51;;;;;;;6.68;3.03;;;15.90;99.90;;;;;;4939528;28;20035;-63
2022/05/13 08:27:17;;;;;;;6.18;2.92;;;15.90;99.90;;;;;;4938612;29;20506;-63
2022/05/13 08:29:42;;;;;;;8.13;2.10;;;16.00;99.90;;;;;;4950828;29;20057;-64
2022/05/13 08:32:08;;;;;;;7.47;2.75;;;15.90;99.90;;;;;;4952954;28;20035;-63
2022/05/13 08:34:34;;;;;;;6.45;2.05;;;15.90;99.90;;;;;;4941616;28;20458;-62
2022/05/13 08:36:59;;;;;;;8.05;2.53;;;15.80;99.90;;;;;;4945204;28;20067;-63
2022/05/13 08:39:25;;;;;;;4.30;2.10;;;15.70;99.90;;;;;;4953302;28;20050;-64
2022/05/13 08:41:59;;;;;;;6.72;2.25;;;15.80;99.90;;;;;;4943803;28;20035;-63
2022/05/13 08:44:26;;;;;;;6.75;2.42;;;15.80;99.90;;;;;;4947184;29;20398;-63
2022/05/13 08:47:00;;;;;;;8.15;2.20;;;15.70;99.90;;;;;;4954011;28;20035;-63
2022/05/13 08:49:40;;;;;;;6.38;2.50;;;15.60;99.90;;;;;;4956996;28;20051;-63
2022/05/13 08:54:58;;;;;;;7.03;2.50;;;15.80;99.90;;;;;;4931913;28;20093;-63
2022/05/13 08:57:28;;;;;;;7.97;2.33;;;16.20;99.90;;;;;;4949308;28;20039;-63
2022/05/13 09:00:00;;;;;;;6.93;2.60;;;16.40;99.90;;;;;;4944843;28;20050;-62
2022/05/13 09:02:58;;;;;;;8.05;2.60;;;16.30;99.90;;;;;;4947492;28;20051;-63
2022/05/13 09:05:28;;;;;;;6.65;2.53;;;16.00;99.90;;;;;;4949561;28;20501;-63
2022/05/13 09:07:55;;;;;;;7.07;2.38;;;15.90;99.90;;;;;;4941102;28;20387;-63
2022/05/13 09:10:25;;;;;;;6.93;2.50;;;15.90;99.90;;;;;;4952673;28;20047;-63
2022/05/13 09:13:00;;;;;;;6.95;2.50;;;16.10;99.90;;;;;;4951795;29;20057;-63
2022/05/13 09:15:55;;;;;;;7.05;2.55;;;16.30;99.90;;;;;;4946859;28;20036;-65
2022/05/13 09:18:31;;;;;;;7.95;2.75;;;16.30;99.90;;;;;;4937144;28;20119;-65
2022/05/13 09:21:00;;;;;;;6.70;2.70;;;16.40;99.90;;;;;;4947500;28;20082;-63
2022/05/13 09:23:26;;;;;;;9.43;2.50;;;16.60;99.90;;;;;;4952572;28;20066;-64
2022/05/13 09:25:57;;;;;;;8.23;2.55;;;16.60;99.90;;;;;;4942412;28;20039;-65
2022/05/13 09:28:25;;;;;;;7.40;2.70;;;16.30;99.90;;;;;;4945303;28;20039;-65
2022/05/13 09:30:55;;;;;;;6.18;2.38;;;16.20;99.90;;;;;;4953086;28;20054;-64
2022/05/13 09:33:36;;;;;;;5.00;2.08;;;16.20;99.90;;;;;;4943724;28;20043;-65
2022/05/13 09:36:26;;;;;;;5.68;2.05;;;16.30;99.90;;;;;;4940087;29;20094;-64
2022/05/13 09:39:15;;;;;;;6.90;2.08;;;16.50;99.90;;;;;;4948763;28;20047;-64
2022/05/13 09:41:41;;;;;;;5.90;1.92;;;16.50;99.70;;;;;;4962689;28;20043;-65
2022/05/13 09:44:11;;;;;;;4.32;2.08;;;16.50;99.90;;;;;;4941430;28;20031;-65
2022/05/13 09:46:43;;;;;;;6.35;2.22;;;16.50;99.70;;;;;;4952749;28;20494;-66
2022/05/13 09:49:29;;;;;;;8.40;2.17;;;16.50;99.90;;;;;;4955009;28;20039;-67
2022/05/13 09:51:59;;;;;;;7.88;2.17;;;16.30;99.90;;;;;;4954619;29;20066;-65
2022/05/13 09:54:33;;;;;;;5.70;2.20;;;16.10;99.90;;;;;;4956217;28;20035;-68
2022/05/13 09:57:14;;;;;;;6.18;2.20;;;16.10;99.90;;;;;;4950585;28;20069;-66
2022/05/13 10:00:05;;;;;;;4.18;2.13;;;16.00;99.90;;;;;;4955107;29;20405;-65
2022/05/13 10:02:35;;;;;;;5.38;2.05;;;16.00;99.90;;;;;;4961801;28;20066;-65
2022/05/13 10:05:10;;;;;;;4.50;1.88;;;16.00;99.90;;;;;;4933048;28;20066;-64
2022/05/13 10:07:45;;;;;;;7.40;2.10;;;16.10;99.90;;;;;;4938073;28;20479;-65
2022/05/13 10:15:53;;;;;;;5.65;1.98;;;16.70;98.90;;;;;;4939843;29;20047;-64
2022/05/13 10:18:26;;;;;;;4.88;2.15;;;17.10;98.50;;;;;;4953680;28;20394;-64
2022/05/13 10:20:57;;;;;;;10.88;2.63;;;17.10;98.00;;;;;;4957709;28;22557;-64
2022/05/13 10:23:29;;;;;;;5.97;2.05;;;17.10;98.90;;;;;;4932346;29;20517;-63
2022/05/13 10:25:58;;;;;;;7.97;2.80;;;17.40;97.60;;;;;;4954578;28;20058;-64
2022/05/13 10:28:37;;;;;;;6.80;2.17;;;17.50;98.20;;;;;;4955107;28;20139;-64
2022/05/13 10:31:19;;;;;;;8.20;2.35;;;17.50;97.70;;;;;;4953814;28;20109;-64
2022/05/13 10:34:04;;;;;;;6.63;2.95;;;17.70;97.50;;;;;;4943546;28;20032;-64
2022/05/13 10:36:42;;;;;;;7.63;3.33;;;17.80;96.70;;;;;;4954262;28;20122;-64
2022/05/13 10:39:19;;;;;;;8.32;3.25;;;17.70;96.80;;;;;;4945021;28;20047;-64
2022/05/13 10:41:56;;;;;;;9.35;4.05;;;17.60;97.80;;;;;;4949400;29;20077;-64
2022/05/13 10:44:50;;;;;;;6.15;3.80;;;17.50;97.80;;;;;;4953468;28;20066;-64
2022/05/13 10:47:26;;;;;;;8.23;4.75;;;17.50;97.90;;;;;;4945962;28;20411;-64
2022/05/13 10:49:52;;;;;;;8.95;5.25;;;17.40;97.90;;;;;;4952385;28;20111;-64
2022/05/13 10:52:27;;;;;;;9.27;5.18;;;17.50;98.40;;;;;;4954997;28;20031;-64
2022/05/13 10:55:03;;;;;;;8.85;4.03;;;17.30;98.20;;;;;;4951089;28;20051;-63
2022/05/13 10:57:45;;;;;;;12.15;5.22;;;17.40;98.40;;;;;;4948774;28;20053;-63
2022/05/13 11:00:26;;;;;;;8.95;4.70;;;17.80;99.20;;;;;;4948528;28;20046;-63
2022/05/13 11:02:57;;;;;;;5.53;3.00;;;17.80;97.20;;;;;;4955845;28;20043;-63
2022/05/13 11:05:35;;;;;;;;;;;17.90;96.80;;;;;;4949897;28;20072;-63
2022/05/13 11:08:30;;;;;;;9.85;3.78;;;17.50;95.90;;;;;;4946521;28;19922;-64
2022/05/13 11:11:24;;;;;;;6.18;3.15;;;17.50;95.80;;;;;;4951413;28;20062;-64
2022/05/13 11:14:14;;;;;;;6.72;3.88;;;17.60;96.00;;;;;;4943490;28;20122;-64
2022/05/13 11:17:15;;;;;;;7.53;3.20;;;18.00;98.20;;;;;;4954527;28;20046;-64
2022/05/13 11:20:21;;;;;;;9.98;3.40;;;17.90;95.90;;;;;;4960805;28;20105;-65
2022/05/13 11:23:01;;;;;;;8.25;3.92;;;18.00;96.50;;;;;;4947131;28;20047;-64
2022/05/13 11:25:54;;;;;;;6.65;3.70;;;18.10;96.40;;;;;;4949263;29;20518;-65
2022/05/13 11:28:37;;;;;;;10.82;3.72;;;18.30;96.30;;;;;;4934194;29;20035;-65
2022/05/13 11:31:21;;;;;;;6.35;3.78;;;18.60;95.80;;;;;;4951865;28;20051;-64
2022/05/13 11:33:59;;;;;;;6.85;3.63;;;18.50;95.20;;;;;;4953011;28;20166;-64
2022/05/13 11:36:33;;;;;;;7.43;3.50;;;18.00;94.50;;;;;;4959732;28;20058;-64
2022/05/13 11:39:25;;;;;;;7.55;3.67;;;17.70;96.00;;;;;;4948861;28;20039;-64
2022/05/13 11:42:18;;;;;;;7.30;2.78;;;18.10;96.10;;;;;;4951279;29;20057;-63
2022/05/13 11:45:12;;;;;;;6.80;3.00;;;18.30;94.60;;;;;;4952273;28;20035;-62
2022/05/13 11:48:09;;;;;;;6.70;3.28;;;18.60;94.40;;;;;;4939447;29;20044;-64
2022/05/13 11:50:35;;;;;;;6.05;3.10;;;18.20;94.70;;;;;;4951178;28;20528;-64
2022/05/13 11:53:02;;;;;;;7.13;3.42;;;18.00;95.50;;;;;;4932168;29;20035;-64
2022/05/13 11:55:47;;;;;;;6.97;4.10;;;17.70;95.80;;;;;;4945567;28;20043;-63
2022/05/13 11:58:50;;;;;;;9.45;2.80;;;18.00;96.60;;;;;;4945291;29;20106;-64
2022/05/13 12:01:35;;;;;;;7.80;3.20;;;18.20;94.20;;;;;;4933285;28;20083;-64
2022/05/13 12:04:12;;;;;;;6.97;3.00;;;18.00;94.20;;;;;;4944984;29;20090;-64
2022/05/13 12:06:50;;;;;;;8.45;2.90;;;18.10;95.70;;;;;;4952616;28;20047;-63
2022/05/13 12:09:46;;;;;;;7.88;2.97;;;18.50;94.10;;;;;;4973192;28;20051;-64
2022/05/13 12:12:23;;;;;;;8.30;2.80;;;18.50;93.80;;;;;;4944106;28;20043;-63
2022/05/13 12:15:07;;;;;;;6.20;2.30;;;18.50;94.40;;;;;;4961306;28;20043;-63
2022/05/13 12:17:49;;;;;;;7.95;2.60;;;18.40;93.80;;;;;;4953583;28;20035;-63
2022/05/13 12:20:35;;;;;;;7.43;2.65;;;18.10;94.30;;;;;;4945015;28;20039;-63
2022/05/13 12:23:25;;;;;;;6.78;2.38;;;18.00;94.30;;;;;;4944865;29;20405;-65
2022/05/13 12:25:56;;;;;;;8.00;2.70;;;17.90;93.50;;;;;;4953367;28;20560;-64
2022/05/13 12:28:23;;;;;;;;;;;17.80;94.30;;;;;;4945347;28;20058;-64
2022/05/13 12:30:51;;;;;;;6.93;2.47;;;17.70;94.50;;;;;;4934181;29;19922;-65
2022/05/13 12:33:24;;;;;;;9.75;2.88;;;17.70;94.30;;;;;;4952776;28;20118;-65
2022/05/13 12:39:07;;;;;;;7.35;2.30;;;17.90;93.80;;;;;;4942510;29;20072;-66
2022/05/13 12:41:41;;;;;;;7.40;2.50;;;18.20;93.80;;;;;;4959376;28;20042;-64
2022/05/13 12:44:10;;;;;;;10.30;2.17;;;18.20;93.30;;;;;;4941207;29;20043;-65
2022/05/13 12:46:51;;;;;;;8.52;2.50;;;18.20;93.10;;;;;;4949593;29;20079;-65
2022/05/13 12:49:27;;;;;;;7.07;2.70;;;18.40;94.20;;;;;;4960581;28;20043;-66
2022/05/13 12:51:53;;;;;;;7.30;3.10;;;18.40;94.10;;;;;;4954210;28;20095;-66
2022/05/13 12:54:23;;;;;;;7.15;2.83;;;18.40;93.80;;;;;;4951909;29;20035;-65
2022/05/13 12:56:55;;;;;;;10.55;2.65;;;18.30;94.60;;;;;;4947115;28;20044;-64
2022/05/13 12:59:28;;;;;;;10.18;3.10;;;18.40;94.70;;;;;;4945732;28;20055;-65
2022/05/13 13:01:58;;;;;;;7.57;2.45;;;18.60;94.70;;;;;;4943575;28;20035;-65
2022/05/13 13:04:27;;;;;;;8.00;2.70;;;18.50;95.00;;;;;;4952590;28;20129;-65
2022/05/13 13:06:54;;;;;;;7.20;2.60;;;18.40;93.20;;;;;;4954970;28;20043;-65
2022/05/13 13:09:24;;;;;;;8.95;2.72;;;18.30;93.30;;;;;;4944854;28;20047;-65
2022/05/13 13:12:05;;;;;;;6.68;2.53;;;18.50;93.70;;;;;;4953241;28;20129;-68
2022/05/13 13:14:59;;;;;;;9.23;2.78;;;18.80;93.50;;;;;;4955263;28;20087;-66
2022/05/13 13:17:36;;;;;;;8.02;2.38;;;19.10;93.40;;;;;;4953306;28;20557;-67
2022/05/13 13:20:05;;;;;;;6.78;2.60;;;19.50;93.60;;;;;;4955274;29;20126;-67
2022/05/13 13:22:48;;;;;;;11.90;2.80;;;19.10;92.00;;;;;;4954523;28;20043;-68
2022/05/13 13:25:24;;;;;;;6.70;2.63;;;18.90;92.80;;;;;;4953698;28;20183;-67
2022/05/13 13:27:54;;;;;;;6.40;2.70;;;19.20;93.70;;;;;;4943339;28;20043;-67